Pagrindinis puslapis
METAR-TAF:

METAR-TAF

Oro uostai :

Kaskavelas, Parana, Brazilija

platuma: 25-00-08S, ilguma: 53-30-07W, Aukštis: 754 m

Dabartinis oras

Ataskaita buvo paskelbta 29 minutes, ne 21:00 UTC
Vėjas 12 kt iš Pietų
Temperatūra 25°C
Drėgmė 44%
Slėgis 1018 hPa
Matomumas 10 km arba daugiau
Mažai debesys ne aukštis 3000 ft

METAR: SBCA 212100Z 17012KT 9999 FEW030 25/12 Q1018

Laikas: 18:29 (21:29 UTC)


TAF: trūkstamas

Orai ataskaitas ir orų prognozės (METAR, TAF).

turimą stotys yra geltonos ir raudonos taškus žemėlapyje.

Perkelti pele per norėdami pamatyti stoties vardą.

Tada spustelėkite, norėdami matyti oro stebėjimo ir prognozės.

Norėdami pakeisti žemėlapį: spustelėkite ant žalios mygtukų su juodo kryžiaus žemyn,; žalią mygtuką su brūkšneliu, jei norite nutolinti; arba žalių rodyklių gretimoms žemėlapius.


METAR-TAF: